Terminal Aerodrome Forecast
Issued by NWS Springfield, MO

Home | Current Version | Previous Version | Text Only | Print | Product List | Glossary On
Versions: 1 2 3 4 5 6 7 8 9 10 11 12 13 14 15 16 17 18 19 20 21
000
FTUS43 KSGF 161100
TAFSGF
TAF
KSGF 161120Z 1612/1712 18003KT 1 1/2SM BR OVC003
      TEMPO 1612/1614 1/2SM FG
     FM161600 17005KT P6SM BKN015
     FM161900 11006KT P6SM SKC
     FM170600 14006KT 3SM BR SCT250=

USA.gov is the U.S. government's official web portal to all federal, state and local government web resources and services.